createdAt,value
2023-05-22T00:00:16.816Z,2.88
2023-05-22T00:02:43.961Z,2.65
2023-05-22T00:05:15.247Z,2.58
2023-05-22T00:07:43.448Z,3.00
2023-05-22T00:10:11.025Z,3.00
2023-05-22T00:12:38.118Z,2.90
2023-05-22T00:15:08.141Z,3.38
2023-05-22T00:17:35.637Z,2.88
2023-05-22T00:20:06.065Z,2.80
2023-05-22T00:22:35.696Z,3.00
2023-05-22T00:25:07.133Z,3.20
2023-05-22T00:27:34.868Z,2.70
2023-05-22T00:30:02.164Z,3.15
2023-05-22T00:32:29.158Z,3.10
2023-05-22T00:34:56.632Z,3.05
2023-05-22T00:37:26.630Z,3.05
2023-05-22T00:39:53.807Z,3.35
2023-05-22T00:42:21.253Z,3.08
2023-05-22T00:44:51.282Z,3.35
2023-05-22T00:47:18.165Z,3.33
2023-05-22T00:49:57.074Z,3.03
2023-05-22T00:52:24.217Z,3.40
2023-05-22T00:54:51.462Z,2.72
2023-05-22T00:57:19.221Z,3.20
2023-05-22T00:59:46.662Z,3.38
2023-05-22T01:02:16.665Z,3.85
2023-05-22T01:04:50.643Z,3.53
2023-05-22T01:07:21.774Z,3.45
2023-05-22T01:09:48.639Z,3.25
2023-05-22T01:12:41.497Z,3.40
2023-05-22T01:15:32.275Z,3.60
2023-05-22T01:18:20.037Z,3.60
2023-05-22T01:21:18.489Z,3.90
2023-05-22T01:24:14.309Z,3.30
2023-05-22T01:27:06.082Z,3.33
2023-05-22T01:30:04.488Z,3.25
2023-05-22T01:32:33.656Z,3.05
2023-05-22T01:35:03.781Z,3.53
2023-05-22T01:37:31.454Z,3.22
2023-05-22T01:39:59.388Z,3.88
2023-05-22T01:42:26.780Z,3.75
2023-05-22T01:44:53.764Z,3.28
2023-05-22T01:47:21.150Z,3.35
2023-05-22T01:49:48.506Z,3.38
2023-05-22T01:52:29.573Z,2.92
2023-05-22T01:55:07.364Z,2.80
2023-05-22T01:57:59.464Z,3.20
2023-05-22T02:00:29.307Z,3.42
2023-05-22T02:03:15.453Z,3.22
2023-05-22T02:05:45.162Z,3.22
2023-05-22T02:08:14.775Z,3.70
2023-05-22T02:10:43.766Z,3.40
2023-05-22T02:13:11.021Z,3.33
2023-05-22T02:15:42.115Z,3.58
2023-05-22T02:18:14.626Z,3.50
2023-05-22T02:20:42.026Z,4.53
2023-05-22T02:23:09.094Z,3.15
2023-05-22T02:25:35.958Z,4.05
2023-05-22T02:28:02.967Z,3.45
2023-05-22T02:30:30.063Z,3.60
2023-05-22T02:32:59.292Z,3.28
2023-05-22T02:35:26.287Z,3.47
2023-05-22T02:37:53.265Z,3.90
2023-05-22T02:40:20.295Z,3.75
2023-05-22T02:42:47.361Z,3.67
2023-05-22T02:45:14.607Z,3.53
2023-05-22T02:47:41.722Z,3.75
2023-05-22T02:50:09.134Z,4.05
2023-05-22T02:52:37.260Z,3.50
2023-05-22T02:55:04.879Z,3.42
2023-05-22T02:57:32.074Z,3.47
2023-05-22T02:59:59.300Z,3.65
2023-05-22T03:02:28.639Z,3.38
2023-05-22T03:04:59.244Z,3.83
2023-05-22T03:07:29.959Z,3.60
2023-05-22T03:09:57.046Z,3.35
2023-05-22T03:12:24.118Z,3.65
2023-05-22T03:14:51.168Z,3.50
2023-05-22T03:17:21.238Z,3.38
2023-05-22T03:19:48.255Z,3.25
2023-05-22T03:22:15.116Z,3.40
2023-05-22T03:24:41.979Z,3.92
2023-05-22T03:27:09.056Z,3.90
2023-05-22T03:29:36.637Z,3.70
2023-05-22T03:32:04.203Z,3.88
2023-05-22T03:34:32.507Z,3.50
2023-05-22T03:36:59.749Z,4.13
2023-05-22T03:39:26.697Z,3.50
2023-05-22T03:41:53.485Z,4.13
2023-05-22T03:44:20.602Z,3.58
2023-05-22T03:46:47.646Z,3.78
2023-05-22T03:49:14.602Z,3.50
2023-05-22T03:51:41.630Z,3.35
2023-05-22T03:54:08.553Z,4.05
2023-05-22T03:56:35.685Z,3.58
2023-05-22T03:59:02.811Z,3.85
2023-05-22T04:01:30.068Z,3.17
2023-05-22T04:03:56.981Z,4.22
2023-05-22T04:06:23.890Z,3.55
2023-05-22T04:08:50.948Z,4.07
2023-05-22T04:11:18.725Z,3.72
2023-05-22T04:13:49.057Z,3.83
2023-05-22T04:16:17.529Z,3.67
2023-05-22T04:18:46.027Z,3.80
2023-05-22T04:21:13.020Z,4.15
2023-05-22T04:23:43.469Z,4.70
2023-05-22T04:26:12.569Z,3.40
2023-05-22T04:28:39.616Z,3.35
2023-05-22T04:31:06.940Z,3.70
2023-05-22T04:33:34.877Z,3.30
2023-05-22T04:36:02.561Z,3.53
2023-05-22T04:38:29.444Z,3.40
2023-05-22T04:40:58.492Z,3.90
2023-05-22T04:43:26.933Z,3.03
2023-05-22T04:45:55.022Z,3.13
2023-05-22T04:48:22.722Z,3.28
2023-05-22T04:50:50.281Z,3.20
2023-05-22T04:53:20.019Z,3.00
2023-05-22T04:55:47.440Z,2.80
2023-05-22T04:58:14.508Z,3.25
2023-05-22T05:00:41.628Z,3.22
2023-05-22T05:03:11.981Z,2.88
2023-05-22T05:05:38.856Z,3.05
2023-05-22T05:08:06.092Z,2.97
2023-05-22T05:10:33.012Z,3.00
2023-05-22T05:12:59.992Z,2.88
2023-05-22T05:15:27.864Z,3.00
2023-05-22T05:17:55.053Z,2.72
2023-05-22T05:20:22.152Z,3.20
2023-05-22T05:22:48.992Z,3.40
2023-05-22T05:25:16.149Z,3.13
2023-05-22T05:27:43.066Z,2.97
2023-05-22T05:30:12.179Z,3.60
2023-05-22T05:32:41.987Z,3.50
2023-05-22T05:35:09.433Z,3.10
2023-05-22T05:37:36.880Z,3.10
2023-05-22T05:40:06.712Z,2.90
2023-05-22T05:42:36.952Z,2.95
2023-05-22T05:45:04.164Z,2.85
2023-05-22T05:47:31.236Z,2.70
2023-05-22T05:50:01.056Z,2.97
2023-05-22T05:52:32.673Z,3.17
2023-05-22T05:55:01.292Z,2.75
2023-05-22T05:57:30.029Z,3.20
2023-05-22T05:59:57.237Z,3.25
2023-05-22T06:02:24.711Z,3.67
2023-05-22T06:04:51.894Z,2.30
2023-05-22T06:07:19.010Z,2.80
2023-05-22T06:09:46.153Z,2.60
2023-05-22T06:12:13.133Z,2.50
2023-05-22T06:14:42.965Z,2.60
2023-05-22T06:17:10.131Z,2.55
2023-05-22T06:19:37.531Z,2.40
2023-05-22T06:22:04.492Z,2.97
2023-05-22T06:24:32.743Z,2.25
2023-05-22T06:27:00.034Z,2.30
2023-05-22T06:29:27.077Z,2.95
2023-05-22T06:31:54.162Z,2.45
2023-05-22T06:34:22.719Z,2.65
2023-05-22T06:36:50.790Z,2.38
2023-05-22T06:39:18.929Z,2.70
2023-05-22T06:41:46.372Z,2.55
2023-05-22T06:44:27.172Z,2.20
2023-05-22T06:46:54.103Z,2.42
2023-05-22T06:49:21.226Z,2.47
2023-05-22T06:51:56.746Z,2.30
2023-05-22T06:54:23.595Z,2.60
2023-05-22T06:56:50.623Z,3.17
2023-05-22T06:59:17.555Z,2.50
2023-05-22T07:01:45.294Z,2.45
2023-05-22T07:04:13.414Z,2.65
2023-05-22T07:06:41.916Z,2.10
2023-05-22T07:09:09.283Z,2.22
2023-05-22T07:11:36.233Z,2.20
2023-05-22T07:14:03.361Z,2.88
2023-05-22T07:16:31.537Z,2.35
2023-05-22T07:18:58.737Z,1.70
2023-05-22T07:21:25.648Z,2.10
2023-05-22T07:23:52.941Z,2.00
2023-05-22T07:26:19.766Z,2.05
2023-05-22T07:28:46.910Z,2.20
2023-05-22T07:31:14.021Z,1.90
2023-05-22T07:33:40.907Z,1.95
2023-05-22T07:36:08.015Z,2.20
2023-05-22T07:38:35.051Z,2.13
2023-05-22T07:41:04.978Z,2.10
2023-05-22T07:43:31.880Z,1.95
2023-05-22T07:45:58.998Z,1.90
2023-05-22T07:48:26.125Z,2.28
2023-05-22T07:50:53.230Z,1.60
2023-05-22T07:55:46.950Z,1.83
2023-05-22T07:58:14.165Z,1.73
2023-05-22T08:00:41.862Z,2.47
2023-05-22T08:03:08.900Z,1.70
2023-05-22T08:05:36.015Z,2.10
2023-05-22T08:08:04.050Z,2.22
2023-05-22T08:10:46.410Z,1.90
2023-05-22T08:13:19.571Z,1.75
2023-05-22T08:15:46.658Z,2.10
2023-05-22T08:18:13.976Z,2.00
2023-05-22T08:20:41.164Z,1.98
2023-05-22T08:23:08.308Z,2.10
2023-05-22T08:25:35.280Z,1.63
2023-05-22T08:28:02.279Z,2.10
2023-05-22T08:30:29.213Z,2.38
2023-05-22T08:32:56.244Z,1.80
2023-05-22T08:35:23.273Z,2.05
2023-05-22T08:37:50.464Z,1.90
2023-05-22T08:40:20.268Z,2.22
2023-05-22T08:42:48.165Z,2.00
2023-05-22T08:45:16.524Z,2.28
2023-05-22T08:47:44.875Z,1.92
2023-05-22T08:50:12.889Z,2.08
2023-05-22T08:53:02.257Z,2.00
2023-05-22T08:55:30.624Z,2.03
2023-05-22T08:57:58.503Z,1.80
2023-05-22T09:00:25.389Z,1.73
2023-05-22T09:02:53.156Z,2.92
2023-05-22T09:05:20.277Z,1.90
2023-05-22T09:07:49.136Z,1.88
2023-05-22T09:10:16.310Z,2.40
2023-05-22T09:13:04.499Z,2.35
2023-05-22T09:15:32.801Z,2.10
2023-05-22T09:18:00.468Z,2.20
2023-05-22T09:20:27.307Z,1.83
2023-05-22T09:22:54.245Z,2.00
2023-05-22T09:25:22.124Z,2.13
2023-05-22T09:27:49.451Z,1.83
2023-05-22T09:30:20.335Z,2.03
2023-05-22T09:32:49.276Z,2.05
2023-05-22T09:35:16.743Z,2.05
2023-05-22T09:37:43.810Z,2.10
2023-05-22T09:40:14.455Z,1.75
2023-05-22T09:42:47.279Z,2.00
2023-05-22T09:45:14.459Z,1.90
2023-05-22T09:47:41.774Z,2.17
2023-05-22T09:50:10.852Z,2.10
2023-05-22T09:52:38.510Z,1.95
2023-05-22T09:55:07.731Z,1.55
2023-05-22T09:57:45.719Z,2.13
2023-05-22T10:00:15.744Z,1.88
2023-05-22T10:02:46.835Z,1.88
2023-05-22T10:05:21.775Z,2.00
2023-05-22T10:07:51.401Z,1.70
2023-05-22T10:10:21.607Z,1.88
2023-05-22T10:12:54.278Z,2.40
2023-05-22T10:15:21.811Z,2.08
2023-05-22T10:17:50.033Z,2.05
2023-05-22T10:20:17.524Z,2.30
2023-05-22T10:22:46.488Z,2.13
2023-05-22T10:25:13.614Z,1.83
2023-05-22T10:27:41.654Z,2.17
2023-05-22T10:30:32.378Z,2.17
2023-05-22T10:33:12.469Z,3.28
2023-05-22T10:35:42.602Z,2.22
2023-05-22T10:38:30.781Z,2.28
2023-05-22T10:40:58.308Z,2.25
2023-05-22T10:43:27.393Z,2.35
2023-05-22T10:46:06.385Z,2.00
2023-05-22T10:48:41.213Z,2.25
2023-05-22T10:53:36.656Z,1.73
2023-05-22T10:56:14.525Z,2.53
2023-05-22T10:58:55.763Z,2.40
2023-05-22T11:01:26.352Z,2.78
2023-05-22T11:04:01.684Z,2.25
2023-05-22T11:06:34.895Z,2.58
2023-05-22T11:09:23.892Z,2.53
2023-05-22T11:12:26.658Z,2.53
2023-05-22T11:15:02.830Z,2.10
2023-05-22T11:17:31.772Z,2.20
2023-05-22T11:20:08.875Z,2.28
2023-05-22T11:22:38.279Z,2.30
2023-05-22T11:25:19.690Z,2.50
2023-05-22T11:27:49.749Z,2.53
2023-05-22T11:30:17.507Z,2.03
2023-05-22T11:32:45.882Z,2.05
2023-05-22T11:35:17.969Z,2.28
2023-05-22T11:37:45.825Z,2.33
2023-05-22T11:40:17.238Z,2.30
2023-05-22T11:42:44.680Z,2.13
2023-05-22T11:45:11.759Z,2.00
2023-05-22T11:47:38.911Z,2.75
2023-05-22T11:50:09.197Z,1.92
2023-05-22T11:52:38.277Z,2.50
2023-05-22T11:55:06.184Z,2.47
2023-05-22T11:57:32.949Z,2.42
2023-05-22T11:59:59.980Z,2.42
2023-05-22T12:02:27.252Z,2.45
2023-05-22T12:04:55.738Z,2.47
2023-05-22T12:07:23.905Z,2.90
2023-05-22T12:09:51.186Z,2.40
2023-05-22T12:12:21.017Z,2.25
2023-05-22T12:14:49.492Z,2.90
2023-05-22T12:17:17.727Z,2.40
2023-05-22T12:19:47.315Z,2.22
2023-05-22T12:22:14.747Z,2.50
2023-05-22T12:24:48.482Z,2.00
2023-05-22T12:27:15.836Z,2.50
2023-05-22T12:29:43.755Z,1.90
2023-05-22T12:32:12.586Z,2.42
2023-05-22T12:34:47.323Z,2.40
2023-05-22T12:37:21.991Z,2.25
2023-05-22T12:42:28.760Z,2.58
2023-05-22T12:44:58.335Z,2.30
2023-05-22T12:47:25.731Z,2.25
2023-05-22T12:49:53.318Z,2.63
2023-05-22T12:52:20.660Z,2.50
2023-05-22T12:54:50.643Z,2.25
2023-05-22T12:57:20.024Z,2.03
2023-05-22T12:59:47.001Z,2.47
2023-05-22T13:02:13.915Z,2.00
2023-05-22T13:04:41.023Z,2.28
2023-05-22T13:07:08.270Z,2.78
2023-05-22T13:09:35.283Z,3.10
2023-05-22T13:12:02.668Z,2.33
2023-05-22T13:14:29.577Z,2.25
2023-05-22T13:16:56.608Z,2.40
2023-05-22T13:19:24.008Z,2.42
2023-05-22T13:21:51.054Z,2.55
2023-05-22T13:24:17.886Z,3.53
2023-05-22T13:26:44.918Z,3.38
2023-05-22T13:29:11.846Z,3.05
2023-05-22T13:31:41.972Z,2.50
2023-05-22T13:34:09.517Z,2.25
2023-05-22T13:36:36.539Z,3.75
2023-05-22T13:39:03.579Z,2.90
2023-05-22T13:41:31.316Z,2.75
2023-05-22T13:43:58.451Z,2.47
2023-05-22T13:46:25.223Z,2.53
2023-05-22T13:48:52.256Z,1.92
2023-05-22T13:51:19.442Z,3.00
2023-05-22T13:53:46.501Z,2.80
2023-05-22T13:56:13.593Z,2.45
2023-05-22T13:58:40.667Z,2.33
2023-05-22T14:01:07.615Z,2.05
2023-05-22T14:03:34.798Z,2.25
2023-05-22T14:06:01.946Z,2.60
2023-05-22T14:08:29.563Z,2.10
2023-05-22T14:10:56.864Z,2.83
2023-05-22T14:13:26.338Z,2.10
2023-05-22T14:15:53.728Z,2.25
2023-05-22T14:18:21.117Z,2.33
2023-05-22T14:20:53.034Z,2.38
2023-05-22T14:23:21.511Z,2.25
2023-05-22T14:25:57.071Z,2.35
2023-05-22T14:28:27.108Z,2.65
2023-05-22T14:30:53.967Z,2.80
2023-05-22T14:33:20.978Z,2.70
2023-05-22T14:35:48.759Z,2.80
2023-05-22T14:38:15.747Z,3.03
2023-05-22T14:40:42.844Z,2.47
2023-05-22T14:43:09.712Z,3.00
2023-05-22T14:45:36.707Z,2.35
2023-05-22T14:48:04.030Z,2.55
2023-05-22T14:50:30.944Z,2.53
2023-05-22T14:52:57.880Z,2.78
2023-05-22T14:55:27.827Z,2.58
2023-05-22T14:57:55.407Z,2.85
2023-05-22T15:00:22.279Z,3.38
2023-05-22T15:02:49.126Z,2.40
2023-05-22T15:05:16.854Z,2.80
2023-05-22T15:07:45.782Z,2.40
2023-05-22T15:10:14.337Z,2.50
2023-05-22T15:12:41.368Z,2.70
2023-05-22T15:15:08.958Z,3.25
2023-05-22T15:17:35.934Z,2.75
2023-05-22T15:20:04.610Z,2.60
2023-05-22T15:22:31.703Z,2.63
2023-05-22T15:25:11.533Z,2.70
2023-05-22T15:27:39.924Z,2.67
2023-05-22T15:30:09.852Z,2.30
2023-05-22T15:32:37.861Z,2.40
2023-05-22T15:35:06.185Z,2.28
2023-05-22T15:37:34.145Z,1.90
2023-05-22T15:40:02.046Z,2.50
2023-05-22T15:42:29.577Z,3.05
2023-05-22T15:44:58.654Z,2.30
2023-05-22T15:47:25.632Z,2.40
2023-05-22T15:49:52.919Z,2.45
2023-05-22T15:52:21.139Z,2.55
2023-05-22T15:54:48.046Z,2.47
2023-05-22T15:57:15.019Z,2.72
2023-05-22T15:59:41.737Z,2.35
2023-05-22T16:02:08.693Z,2.42
2023-05-22T16:04:35.798Z,2.53
2023-05-22T16:07:02.506Z,2.22
2023-05-22T16:09:32.059Z,2.50
2023-05-22T16:11:59.733Z,3.05
2023-05-22T16:14:26.730Z,2.45
2023-05-22T16:16:57.066Z,2.30
2023-05-22T16:19:24.967Z,2.20
2023-05-22T16:21:51.934Z,2.30
2023-05-22T16:24:21.713Z,2.42
2023-05-22T16:26:48.746Z,2.30
2023-05-22T16:29:18.164Z,2.47
2023-05-22T16:31:45.017Z,2.30
2023-05-22T16:34:12.524Z,2.88
2023-05-22T16:36:39.538Z,2.13
2023-05-22T16:39:06.926Z,2.40
2023-05-22T16:41:34.248Z,2.50
2023-05-22T16:44:01.200Z,2.28
2023-05-22T16:46:28.510Z,2.78
2023-05-22T16:48:55.546Z,2.55
2023-05-22T16:51:22.619Z,2.38
2023-05-22T16:53:50.953Z,2.42
2023-05-22T16:56:20.542Z,2.65
2023-05-22T16:58:47.890Z,2.28
2023-05-22T17:01:14.901Z,2.63
2023-05-22T17:03:42.624Z,2.33
2023-05-22T17:06:12.148Z,2.95
2023-05-22T17:08:39.120Z,2.20
2023-05-22T17:11:06.207Z,2.10
2023-05-22T17:13:33.026Z,2.20
2023-05-22T17:15:59.839Z,2.67
2023-05-22T17:18:27.124Z,2.33
2023-05-22T17:20:54.487Z,2.13
2023-05-22T17:23:21.683Z,2.10
2023-05-22T17:25:48.908Z,2.28
2023-05-22T17:28:15.969Z,2.15
2023-05-22T17:30:44.280Z,2.20
2023-05-22T17:33:12.322Z,2.28
2023-05-22T17:35:39.317Z,2.20
2023-05-22T17:38:08.589Z,2.17
2023-05-22T17:40:44.807Z,2.35
2023-05-22T17:43:14.497Z,2.65
2023-05-22T17:45:42.181Z,2.55
2023-05-22T17:48:09.519Z,2.28
2023-05-22T17:50:36.672Z,2.40
2023-05-22T17:53:03.445Z,2.45
2023-05-22T17:55:30.310Z,2.67
2023-05-22T17:57:57.535Z,2.38
2023-05-22T18:00:24.503Z,2.40
2023-05-22T18:02:51.748Z,2.22
2023-05-22T18:05:18.730Z,2.25
2023-05-22T18:07:46.117Z,2.47
2023-05-22T18:10:12.964Z,2.50
2023-05-22T18:12:40.020Z,2.28
2023-05-22T18:15:09.843Z,2.15
2023-05-22T18:17:36.806Z,2.55
2023-05-22T18:20:07.056Z,2.45
2023-05-22T18:22:35.462Z,2.15
2023-05-22T18:25:02.658Z,2.10
2023-05-22T18:27:29.654Z,2.20
2023-05-22T18:29:56.703Z,2.10
2023-05-22T18:32:23.964Z,3.38
2023-05-22T18:34:52.276Z,2.10
2023-05-22T18:37:19.780Z,2.30
2023-05-22T18:39:56.067Z,2.78
2023-05-22T18:42:23.030Z,1.83
2023-05-22T18:44:50.877Z,2.42
2023-05-22T18:47:21.017Z,2.40
2023-05-22T18:49:48.118Z,2.40
2023-05-22T18:52:15.302Z,2.03
2023-05-22T18:54:43.088Z,2.00
2023-05-22T18:57:09.870Z,2.03
2023-05-22T18:59:37.535Z,2.50
2023-05-22T19:02:04.783Z,2.30
2023-05-22T19:04:31.685Z,2.38
2023-05-22T19:06:59.304Z,2.42
2023-05-22T19:09:26.289Z,2.40
2023-05-22T19:11:53.104Z,2.70
2023-05-22T19:14:20.088Z,2.42
2023-05-22T19:16:47.238Z,2.30
2023-05-22T19:19:18.005Z,2.50
2023-05-22T19:21:45.172Z,2.60
2023-05-22T19:24:12.118Z,2.53
2023-05-22T19:26:41.193Z,2.45
2023-05-22T19:29:10.959Z,2.55
2023-05-22T19:31:38.058Z,2.95
2023-05-22T19:34:05.172Z,2.50
2023-05-22T19:36:34.489Z,3.08
2023-05-22T19:39:01.463Z,2.90
2023-05-22T19:41:28.464Z,2.70
2023-05-22T19:43:56.085Z,2.45
2023-05-22T19:46:23.195Z,2.40
2023-05-22T19:48:55.922Z,3.08
2023-05-22T19:51:22.939Z,2.58
2023-05-22T19:53:52.456Z,2.30
2023-05-22T19:56:25.088Z,2.65
2023-05-22T19:58:52.080Z,2.88
2023-05-22T20:01:19.161Z,2.05
2023-05-22T20:03:46.616Z,2.50
2023-05-22T20:06:14.096Z,2.67
2023-05-22T20:08:44.447Z,2.40
2023-05-22T20:11:11.370Z,2.05
2023-05-22T20:13:38.143Z,2.13
2023-05-22T20:16:11.778Z,2.50
2023-05-22T20:18:41.108Z,3.28
2023-05-22T20:21:08.394Z,2.30
2023-05-22T20:23:35.360Z,2.20
2023-05-22T20:26:02.202Z,2.58
2023-05-22T20:28:29.087Z,2.50
2023-05-22T20:30:56.205Z,2.13
2023-05-22T20:33:23.354Z,2.90
2023-05-22T20:35:52.855Z,2.25
2023-05-22T20:38:20.246Z,2.30
2023-05-22T20:40:47.777Z,2.20
2023-05-22T20:43:15.317Z,2.58
2023-05-22T20:45:46.067Z,2.70
2023-05-22T20:48:13.916Z,2.50
2023-05-22T20:50:42.357Z,2.55
2023-05-22T20:53:09.111Z,2.40
2023-05-22T20:55:36.434Z,2.75
2023-05-22T20:58:03.301Z,2.55
2023-05-22T21:00:30.277Z,2.08
2023-05-22T21:02:58.576Z,2.42
2023-05-22T21:05:26.427Z,2.38
2023-05-22T21:07:53.523Z,2.63
2023-05-22T21:10:20.421Z,2.45
2023-05-22T21:12:47.460Z,2.80
2023-05-22T21:15:14.399Z,2.47
2023-05-22T21:17:41.572Z,2.67
2023-05-22T21:20:08.973Z,2.33
2023-05-22T21:22:35.937Z,2.92
2023-05-22T21:25:02.795Z,2.55
2023-05-22T21:27:29.710Z,2.47
2023-05-22T21:29:56.740Z,2.55
2023-05-22T21:32:23.603Z,2.70
2023-05-22T21:34:50.501Z,2.90
2023-05-22T21:37:17.540Z,2.92
2023-05-22T21:39:44.401Z,2.28
2023-05-22T21:42:11.322Z,2.40
2023-05-22T21:44:38.748Z,2.53
2023-05-22T21:47:05.973Z,2.50
2023-05-22T21:49:33.185Z,2.95
2023-05-22T21:52:00.165Z,2.70
2023-05-22T21:54:26.925Z,2.33
2023-05-22T21:56:54.420Z,2.95
2023-05-22T21:59:21.551Z,2.53
2023-05-22T22:01:48.700Z,2.47
2023-05-22T22:04:15.949Z,2.45
2023-05-22T22:06:42.848Z,2.70
2023-05-22T22:09:09.849Z,2.40
2023-05-22T22:11:36.764Z,2.38
2023-05-22T22:14:03.993Z,2.65
2023-05-22T22:16:36.165Z,3.53
2023-05-22T22:19:03.398Z,2.95
2023-05-22T22:21:30.719Z,2.78
2023-05-22T22:23:57.666Z,2.53
2023-05-22T22:26:25.034Z,2.65
2023-05-22T22:28:52.818Z,2.78
2023-05-22T22:31:19.829Z,2.22
2023-05-22T22:33:46.813Z,2.40
2023-05-22T22:36:13.794Z,2.92
2023-05-22T22:38:40.730Z,3.10
2023-05-22T22:41:09.454Z,2.80
2023-05-22T22:43:36.385Z,3.00
2023-05-22T22:46:03.352Z,2.35
2023-05-22T22:48:30.319Z,2.88
2023-05-22T22:50:58.403Z,2.70
2023-05-22T22:53:25.495Z,3.15
2023-05-22T22:55:59.464Z,2.92
2023-05-22T22:58:26.331Z,2.92
2023-05-22T23:00:53.804Z,2.72
2023-05-22T23:03:20.970Z,3.05
2023-05-22T23:05:48.290Z,2.80
2023-05-22T23:08:15.509Z,2.58
2023-05-22T23:10:42.328Z,3.05
2023-05-22T23:13:09.340Z,2.83
2023-05-22T23:15:36.257Z,2.50
2023-05-22T23:18:03.097Z,2.90
2023-05-22T23:20:30.095Z,2.72
2023-05-22T23:22:56.954Z,3.15
2023-05-22T23:25:25.645Z,2.50
2023-05-22T23:27:52.845Z,2.75
2023-05-22T23:30:19.974Z,2.85
2023-05-22T23:32:47.130Z,2.70
2023-05-22T23:35:14.212Z,3.20
2023-05-22T23:37:41.337Z,2.72
2023-05-22T23:40:09.345Z,3.30
2023-05-22T23:42:36.422Z,3.00
2023-05-22T23:45:07.062Z,3.53
2023-05-22T23:47:34.087Z,2.95
2023-05-22T23:50:00.933Z,2.97
2023-05-22T23:52:27.921Z,2.65
2023-05-22T23:54:54.927Z,2.80
2023-05-22T23:57:22.297Z,2.85
2023-05-22T23:59:49.211Z,2.33
